PWSweather.com
Personal Weather Stations
Station Observations
FALLO12
Churchill County, Fallon, NV 89406

Churchill CountyFallon, NV 89406

Lat: 39.51, Lon: -118.7617

Elevation: 3957

Station Type: WS-2080

http://webpages.charter.net/cgvad1/

High Low Average
Temperature 53.6°F12.0°F 40.1°F4.5°F 46.6°F8.1°F
Dew Point 34.7°F1.5°F 18.7°F-7.4°F 24.2°F-4.3°F
Winds 6.0 mph E9.7 mph E 0.7 mph 1.1 mph 1.8 mph 2.9 mph
Wind Gusts 8.3 mph13.4 mph 2.2 mph3.5 mph 3.8 mph6.1 mph
Humidity 62% 25% 42%
Pressure 30.11 in1019.60 in 30.01 in1016.30 in -
Precipitation 0.00 in0.00 in - -
Hour Temp Dew Point Humidity Winds Wind Gusts Pressure Precip Precip Rate Daily Precip Total
12:00 AM 53.6°F12.0°C 18.7°F-7.4°C 25% 0.7 mph W1.1 kmh W 4.5 mph7.2 kmh 30.01 in1016.3 mb 0.00 in0.0 mm 0.00 in/hr0.0 mm/hr 0.00 in0.0 mm
12:10 AM 52.3°F11.3°C 19.4°F-7.0°C 27% 1.6 mph W2.6 kmh W 2.2 mph3.5 kmh 30.02 in1016.6 mb 0.00 in0.0 mm 0.00 in/hr0.0 mm/hr 0.00 in0.0 mm
12:20 AM 49.8°F9.9°C 24.6°F-4.1°C 37% 1.6 mph S2.6 kmh S 3.8 mph6.1 kmh 30.03 in1016.9 mb 0.00 in0.0 mm 0.00 in/hr0.0 mm/hr 0.00 in0.0 mm
12:30 AM 48.6°F9.2°C 22.2°F-5.4°C 35% 0.7 mph SW1.1 kmh SW 3.1 mph5.0 kmh 30.02 in1016.6 mb 0.00 in0.0 mm 0.00 in/hr0.0 mm/hr 0.00 in0.0 mm
12:40 AM 49.3°F9.6°C 22.1°F-5.5°C 34% 0.7 mph NNW1.1 kmh NNW 3.1 mph5.0 kmh 30.03 in1016.9 mb 0.00 in0.0 mm 0.00 in/hr0.0 mm/hr 0.00 in0.0 mm
12:50 AM 50.4°F10.2°C 20.9°F-6.2°C 31% 0.7 mph W1.1 kmh W 3.8 mph6.1 kmh 30.03 in1016.9 mb 0.00 in0.0 mm 0.00 in/hr0.0 mm/hr 0.00 in0.0 mm
01:00 AM 49.8°F9.9°C 21.2°F-6.0°C 32% 3.8 mph NW6.1 kmh NW 5.4 mph8.7 kmh 30.03 in1016.9 mb 0.00 in0.0 mm 0.00 in/hr0.0 mm/hr 0.00 in0.0 mm
01:10 AM 50.2°F10.1°C 20.7°F-6.3°C 31% 2.2 mph NW3.5 kmh NW 5.4 mph8.7 kmh 30.03 in1016.9 mb 0.00 in0.0 mm 0.00 in/hr0.0 mm/hr 0.00 in0.0 mm
01:20 AM 50.2°F10.1°C 22.2°F-5.4°C 33% 6.0 mph E9.7 kmh E 8.3 mph13.4 kmh 30.04 in1017.3 mb 0.00 in0.0 mm 0.00 in/hr0.0 mm/hr 0.00 in0.0 mm
01:30 AM 49.8°F9.9°C 22.6°F-5.2°C 34% 1.6 mph W2.6 kmh W 6.9 mph11.1 kmh 30.04 in1017.3 mb 0.00 in0.0 mm 0.00 in/hr0.0 mm/hr 0.00 in0.0 mm
01:40 AM 49.8°F9.9°C 22.6°F-5.2°C 34% 1.6 mph NW2.6 kmh NW 2.2 mph3.5 kmh 30.04 in1017.3 mb 0.00 in0.0 mm 0.00 in/hr0.0 mm/hr 0.00 in0.0 mm
01:50 AM 49.6°F9.8°C 22.4°F-5.3°C 34% 0.7 mph N1.1 kmh N 2.2 mph3.5 kmh 30.04 in1017.3 mb 0.00 in0.0 mm 0.00 in/hr0.0 mm/hr 0.00 in0.0 mm
02:00 AM 49.8°F9.9°C 21.2°F-6.0°C 32% 2.2 mph N3.5 kmh N 3.8 mph6.1 kmh 30.03 in1016.9 mb 0.00 in0.0 mm 0.00 in/hr0.0 mm/hr 0.00 in0.0 mm
02:10 AM 49.5°F9.7°C 20.8°F-6.2°C 32% 1.6 mph NW2.6 kmh NW 3.8 mph6.1 kmh 30.03 in1016.9 mb 0.00 in0.0 mm 0.00 in/hr0.0 mm/hr 0.00 in0.0 mm
02:20 AM 49.8°F9.9°C 19.7°F-6.8°C 30% 1.6 mph NNW2.6 kmh NNW 3.1 mph5.0 kmh 30.04 in1017.3 mb 0.00 in0.0 mm 0.00 in/hr0.0 mm/hr 0.00 in0.0 mm
02:30 AM 49.5°F9.7°C 19.3°F-7.1°C 30% 2.2 mph NW3.5 kmh NW 3.1 mph5.0 kmh 30.04 in1017.3 mb 0.00 in0.0 mm 0.00 in/hr0.0 mm/hr 0.00 in0.0 mm
02:40 AM 47.7°F8.7°C 19.3°F-7.1°C 32% 0.7 mph NW1.1 kmh NW 3.1 mph5.0 kmh 30.04 in1017.3 mb 0.00 in0.0 mm 0.00 in/hr0.0 mm/hr 0.00 in0.0 mm
02:50 AM 47.1°F8.4°C 19.5°F-6.9°C 33% 2.2 mph WNW3.5 kmh WNW 3.8 mph6.1 kmh 30.04 in1017.3 mb 0.00 in0.0 mm 0.00 in/hr0.0 mm/hr 0.00 in0.0 mm
03:00 AM 46.9°F8.3°C 20.1°F-6.6°C 34% 1.6 mph W2.6 kmh W 3.8 mph6.1 kmh 30.05 in1017.6 mb 0.00 in0.0 mm 0.00 in/hr0.0 mm/hr 0.00 in0.0 mm
03:10 AM 46.4°F8.0°C 20.3°F-6.5°C 35% 1.6 mph NW2.6 kmh NW 2.2 mph3.5 kmh 30.05 in1017.6 mb 0.00 in0.0 mm 0.00 in/hr0.0 mm/hr 0.00 in0.0 mm
03:20 AM 46.4°F8.0°C 20.3°F-6.5°C 35% 1.6 mph NW2.6 kmh NW 3.8 mph6.1 kmh 30.05 in1017.6 mb 0.00 in0.0 mm 0.00 in/hr0.0 mm/hr 0.00 in0.0 mm
03:30 AM 45.5°F7.5°C 19.5°F-6.9°C 35% 1.6 mph NW2.6 kmh NW 3.1 mph5.0 kmh 30.05 in1017.6 mb 0.00 in0.0 mm 0.00 in/hr0.0 mm/hr 0.00 in0.0 mm
03:40 AM 45.5°F7.5°C 20.1°F-6.6°C 36% 3.1 mph WNW5.0 kmh WNW 4.5 mph7.2 kmh 30.06 in1017.9 mb 0.00 in0.0 mm 0.00 in/hr0.0 mm/hr 0.00 in0.0 mm
03:50 AM 45.5°F7.5°C 21.4°F-5.9°C 38% 0.7 mph NW1.1 kmh NW 4.5 mph7.2 kmh 30.06 in1017.9 mb 0.00 in0.0 mm 0.00 in/hr0.0 mm/hr 0.00 in0.0 mm
04:00 AM 46.2°F7.9°C 22.6°F-5.2°C 39% 1.6 mph NNW2.6 kmh NNW 3.1 mph5.0 kmh 30.06 in1017.9 mb 0.00 in0.0 mm 0.00 in/hr0.0 mm/hr 0.00 in0.0 mm
04:10 AM 46.2°F7.9°C 23.8°F-4.6°C 41% 0.7 mph NW1.1 kmh NW 2.2 mph3.5 kmh 30.06 in1017.9 mb 0.00 in0.0 mm 0.00 in/hr0.0 mm/hr 0.00 in0.0 mm
04:20 AM 45.9°F7.7°C 23.5°F-4.7°C 41% 1.6 mph NW2.6 kmh NW 2.2 mph3.5 kmh 30.06 in1017.9 mb 0.00 in0.0 mm 0.00 in/hr0.0 mm/hr 0.00 in0.0 mm
04:30 AM 45.3°F7.4°C 23.6°F-4.7°C 42% 1.6 mph NW2.6 kmh NW 3.1 mph5.0 kmh 30.06 in1017.9 mb 0.00 in0.0 mm 0.00 in/hr0.0 mm/hr 0.00 in0.0 mm
04:40 AM 45.0°F7.2°C 23.3°F-4.8°C 42% 1.6 mph NW2.6 kmh NW 2.2 mph3.5 kmh 30.06 in1017.9 mb 0.00 in0.0 mm 0.00 in/hr0.0 mm/hr 0.00 in0.0 mm
04:50 AM 44.2°F6.8°C 23.7°F-4.6°C 44% 1.6 mph NW2.6 kmh NW 3.1 mph5.0 kmh 30.06 in1017.9 mb 0.00 in0.0 mm 0.00 in/hr0.0 mm/hr 0.00 in0.0 mm
05:00 AM 44.1°F6.7°C 24.1°F-4.4°C 45% 2.2 mph NW3.5 kmh NW 3.8 mph6.1 kmh 30.06 in1017.9 mb 0.00 in0.0 mm 0.00 in/hr0.0 mm/hr 0.00 in0.0 mm
05:10 AM 43.7°F6.5°C 24.8°F-4.0°C 47% 1.6 mph NW2.6 kmh NW 3.1 mph5.0 kmh 30.06 in1017.9 mb 0.00 in0.0 mm 0.00 in/hr0.0 mm/hr 0.00 in0.0 mm
05:20 AM 42.6°F5.9°C 24.3°F-4.3°C 48% 1.6 mph NW2.6 kmh NW 3.1 mph5.0 kmh 30.06 in1017.9 mb 0.00 in0.0 mm 0.00 in/hr0.0 mm/hr 0.00 in0.0 mm
05:30 AM 42.3°F5.7°C 25.0°F-3.9°C 50% 0.7 mph NW1.1 kmh NW 4.5 mph7.2 kmh 30.06 in1017.9 mb 0.00 in0.0 mm 0.00 in/hr0.0 mm/hr 0.00 in0.0 mm
05:40 AM 41.7°F5.4°C 25.4°F-3.7°C 52% 1.6 mph W2.6 kmh W 3.8 mph6.1 kmh 30.06 in1017.9 mb 0.00 in0.0 mm 0.00 in/hr0.0 mm/hr 0.00 in0.0 mm
05:50 AM 40.5°F4.7°C 25.1°F-3.8°C 54% 2.2 mph SW3.5 kmh SW 3.8 mph6.1 kmh 30.07 in1018.3 mb 0.00 in0.0 mm 0.00 in/hr0.0 mm/hr 0.00 in0.0 mm
06:00 AM 40.8°F4.9°C 26.8°F-2.9°C 57% 2.2 mph W3.5 kmh W 3.8 mph6.1 kmh 30.07 in1018.3 mb 0.00 in0.0 mm 0.00 in/hr0.0 mm/hr 0.00 in0.0 mm
06:10 AM 41.4°F5.2°C 27.3°F-2.6°C 57% 3.8 mph WNW6.1 kmh WNW 4.5 mph7.2 kmh 30.07 in1018.3 mb 0.00 in0.0 mm 0.00 in/hr0.0 mm/hr 0.00 in0.0 mm
06:20 AM 41.0°F5.0°C 27.0°F-2.8°C 57% 2.2 mph W3.5 kmh W 5.4 mph8.7 kmh 30.07 in1018.3 mb 0.00 in0.0 mm 0.00 in/hr0.0 mm/hr 0.00 in0.0 mm
06:30 AM 40.1°F4.5°C 27.3°F-2.6°C 60% 2.2 mph W3.5 kmh W 4.5 mph7.2 kmh 30.08 in1018.6 mb 0.00 in0.0 mm 0.00 in/hr0.0 mm/hr 0.00 in0.0 mm
06:40 AM 41.0°F5.0°C 28.6°F-1.9°C 61% 2.2 mph W3.5 kmh W 3.8 mph6.1 kmh 30.08 in1018.6 mb 0.00 in0.0 mm 0.00 in/hr0.0 mm/hr 0.00 in0.0 mm
06:50 AM 41.2°F5.1°C 28.8°F-1.8°C 61% 3.8 mph W6.1 kmh W 4.5 mph7.2 kmh 30.09 in1019.0 mb 0.00 in0.0 mm 0.00 in/hr0.0 mm/hr 0.00 in0.0 mm
07:00 AM 42.3°F5.7°C 30.2°F-1.0°C 62% 2.2 mph NW3.5 kmh NW 4.5 mph7.2 kmh 30.09 in1019.0 mb 0.00 in0.0 mm 0.00 in/hr0.0 mm/hr 0.00 in0.0 mm
07:10 AM 43.9°F6.6°C 31.3°F-0.4°C 61% 1.6 mph NW2.6 kmh NW 3.8 mph6.1 kmh 30.09 in1019.0 mb 0.00 in0.0 mm 0.00 in/hr0.0 mm/hr 0.00 in0.0 mm
07:20 AM 45.1°F7.3°C 31.7°F-0.2°C 59% 1.6 mph NNW2.6 kmh NNW 3.8 mph6.1 kmh 30.09 in1019.0 mb 0.00 in0.0 mm 0.00 in/hr0.0 mm/hr 0.00 in0.0 mm
07:30 AM 48.9°F9.4°C 33.9°F1.1°C 56% 1.6 mph NNW2.6 kmh NNW 3.8 mph6.1 kmh 30.09 in1019.0 mb 0.00 in0.0 mm 0.00 in/hr0.0 mm/hr 0.00 in0.0 mm
07:40 AM 51.3°F10.7°C 34.7°F1.5°C 53% 1.6 mph NW2.6 kmh NW 3.1 mph5.0 kmh 30.10 in1019.3 mb 0.00 in0.0 mm 0.00 in/hr0.0 mm/hr 0.00 in0.0 mm
07:50 AM 52.9°F11.6°C 34.3°F1.3°C 49% 2.2 mph NNW3.5 kmh NNW 4.5 mph7.2 kmh 30.10 in1019.3 mb 0.00 in0.0 mm 0.00 in/hr0.0 mm/hr 0.00 in0.0 mm
08:00 AM 53.6°F12.0°C 33.3°F0.7°C 46% 1.6 mph N2.6 kmh N 5.4 mph8.7 kmh 30.11 in1019.6 mb 0.00 in0.0 mm 0.00 in/hr0.0 mm/hr 0.00 in0.0 mm